createdAt,value
2024-02-17T00:00:06.727Z,63.71
2024-02-17T00:02:34.075Z,63.89
2024-02-17T00:05:00.913Z,63.94
2024-02-17T00:07:27.608Z,63.73
2024-02-17T00:09:54.315Z,64.03
2024-02-17T00:12:21.059Z,64.00
2024-02-17T00:14:47.855Z,63.50
2024-02-17T00:17:15.317Z,63.92
2024-02-17T00:19:42.432Z,63.67
2024-02-17T00:22:09.471Z,63.93
2024-02-17T00:24:36.194Z,64.05
2024-02-17T00:27:03.708Z,64.18
2024-02-17T00:29:30.566Z,63.87
2024-02-17T00:31:57.442Z,63.75
2024-02-17T00:34:24.978Z,63.79
2024-02-17T00:36:52.351Z,63.91
2024-02-17T00:39:19.277Z,64.01
2024-02-17T00:41:47.012Z,63.92
2024-02-17T00:44:14.208Z,63.70
2024-02-17T00:46:41.348Z,63.89
2024-02-17T00:49:10.551Z,63.89
2024-02-17T00:51:37.637Z,63.77
2024-02-17T00:54:04.443Z,63.79
2024-02-17T00:56:31.101Z,64.14
2024-02-17T00:58:57.647Z,63.97
2024-02-17T01:01:32.875Z,64.21
2024-02-17T01:04:05.604Z,64.02
2024-02-17T01:06:32.491Z,64.08
2024-02-17T01:08:59.199Z,63.80
2024-02-17T01:11:25.906Z,63.94
2024-02-17T01:13:52.646Z,63.84
2024-02-17T01:16:19.731Z,63.75
2024-02-17T01:18:46.509Z,63.87
2024-02-17T01:21:13.823Z,63.78
2024-02-17T01:23:41.103Z,64.03
2024-02-17T01:26:08.169Z,64.15
2024-02-17T01:28:34.922Z,63.79
2024-02-17T01:31:01.543Z,63.52
2024-02-17T01:33:28.254Z,63.68
2024-02-17T01:35:55.327Z,63.76
2024-02-17T01:38:22.237Z,63.85
2024-02-17T01:40:48.867Z,63.97
2024-02-17T01:43:15.946Z,64.06
2024-02-17T01:45:42.549Z,63.63
2024-02-17T01:48:10.146Z,63.67
2024-02-17T01:50:37.082Z,63.96
2024-02-17T01:53:04.016Z,63.61
2024-02-17T01:55:31.460Z,63.83
2024-02-17T01:57:59.263Z,63.68
2024-02-17T02:00:26.195Z,63.67
2024-02-17T02:02:55.011Z,63.57
2024-02-17T02:05:22.571Z,63.52
2024-02-17T02:07:49.336Z,63.89
2024-02-17T02:10:16.285Z,63.81
2024-02-17T02:12:42.990Z,63.41
2024-02-17T02:15:12.268Z,63.84
2024-02-17T02:17:40.337Z,63.54
2024-02-17T02:20:07.657Z,64.01
2024-02-17T02:22:34.756Z,63.76
2024-02-17T02:25:02.150Z,63.42
2024-02-17T02:27:28.992Z,63.54
2024-02-17T02:29:57.283Z,63.81
2024-02-17T02:32:27.605Z,63.81
2024-02-17T02:34:55.636Z,63.42
2024-02-17T02:37:28.392Z,63.41
2024-02-17T02:39:55.071Z,63.73
2024-02-17T02:42:21.703Z,63.64
2024-02-17T02:44:48.356Z,63.84
2024-02-17T02:47:18.080Z,63.60
2024-02-17T02:49:46.298Z,63.35
2024-02-17T02:52:14.541Z,63.46
2024-02-17T02:54:41.299Z,63.38
2024-02-17T02:57:07.947Z,63.66
2024-02-17T02:59:34.679Z,63.49
2024-02-17T03:02:04.858Z,63.47
2024-02-17T03:04:31.732Z,63.57
2024-02-17T03:06:58.712Z,63.26
2024-02-17T03:09:25.406Z,63.21
2024-02-17T03:11:52.034Z,63.45
2024-02-17T03:14:18.933Z,63.25
2024-02-17T03:16:45.816Z,63.22
2024-02-17T03:19:12.612Z,63.49
2024-02-17T03:21:41.631Z,63.67
2024-02-17T03:24:09.167Z,63.28
2024-02-17T03:26:37.613Z,63.70
2024-02-17T03:29:04.758Z,63.57
2024-02-17T03:31:31.390Z,63.29
2024-02-17T03:34:00.690Z,63.45
2024-02-17T03:36:28.027Z,63.57
2024-02-17T03:38:54.919Z,63.57
2024-02-17T03:41:21.534Z,63.50
2024-02-17T03:43:48.286Z,63.37
2024-02-17T03:46:14.868Z,63.69
2024-02-17T03:48:41.794Z,63.69
2024-02-17T03:51:09.025Z,63.52
2024-02-17T03:53:36.838Z,63.61
2024-02-17T03:56:04.837Z,63.14
2024-02-17T03:58:31.434Z,63.32
2024-02-17T04:00:58.141Z,63.44
2024-02-17T04:03:25.094Z,63.82
2024-02-17T04:05:51.942Z,63.27
2024-02-17T04:08:18.744Z,63.58
2024-02-17T04:10:45.992Z,63.66
2024-02-17T04:13:12.856Z,63.52
2024-02-17T04:15:40.569Z,63.46
2024-02-17T04:18:11.263Z,63.68
2024-02-17T04:20:39.138Z,63.82
2024-02-17T04:23:07.047Z,63.70
2024-02-17T04:25:34.214Z,63.56
2024-02-17T04:28:03.417Z,63.42
2024-02-17T04:30:30.134Z,63.76
2024-02-17T04:32:56.915Z,63.54
2024-02-17T04:35:23.872Z,63.48
2024-02-17T04:37:50.640Z,63.50
2024-02-17T04:40:17.326Z,63.65
2024-02-17T04:42:45.545Z,63.51
2024-02-17T04:45:12.219Z,63.96
2024-02-17T04:47:39.637Z,63.76
2024-02-17T04:50:06.508Z,63.96
2024-02-17T04:52:33.200Z,63.99
2024-02-17T04:54:59.855Z,63.90
2024-02-17T04:57:26.549Z,63.98
2024-02-17T04:59:53.304Z,63.82
2024-02-17T05:02:19.933Z,63.70
2024-02-17T05:04:46.626Z,63.54
2024-02-17T05:07:13.315Z,63.95
2024-02-17T05:09:40.093Z,63.74
2024-02-17T05:12:06.909Z,63.82
2024-02-17T05:14:37.590Z,63.92
2024-02-17T05:17:05.228Z,63.81
2024-02-17T05:19:32.349Z,64.00
2024-02-17T05:21:59.951Z,63.74
2024-02-17T05:24:26.826Z,63.75
2024-02-17T05:26:53.878Z,63.76
2024-02-17T05:29:20.432Z,63.49
2024-02-17T05:31:47.056Z,63.56
2024-02-17T05:34:13.978Z,63.84
2024-02-17T05:36:41.128Z,63.57
2024-02-17T05:39:08.985Z,63.93
2024-02-17T05:41:36.000Z,63.99
2024-02-17T05:44:02.837Z,63.67
2024-02-17T05:46:29.435Z,64.02
2024-02-17T05:48:56.201Z,64.06
2024-02-17T05:51:22.885Z,63.67
2024-02-17T05:53:49.637Z,64.16
2024-02-17T05:56:16.327Z,63.98
2024-02-17T05:58:43.918Z,63.86
2024-02-17T06:01:11.249Z,63.93
2024-02-17T06:03:38.058Z,64.08
2024-02-17T06:06:05.353Z,63.78
2024-02-17T06:08:34.463Z,63.54
2024-02-17T06:11:01.635Z,63.68
2024-02-17T06:13:30.042Z,63.81
2024-02-17T06:15:57.144Z,64.13
2024-02-17T06:18:42.486Z,63.67
2024-02-17T06:21:12.385Z,64.04
2024-02-17T06:23:39.177Z,63.66
2024-02-17T06:26:06.569Z,63.99
2024-02-17T06:28:33.519Z,63.78
2024-02-17T06:31:00.398Z,64.35
2024-02-17T06:33:32.438Z,64.30
2024-02-17T06:35:59.285Z,64.17
2024-02-17T06:38:25.908Z,63.72
2024-02-17T06:40:52.882Z,63.88
2024-02-17T06:43:19.448Z,64.31
2024-02-17T06:45:46.442Z,64.32
2024-02-17T06:48:13.345Z,64.42
2024-02-17T06:50:40.227Z,63.93
2024-02-17T06:53:06.983Z,63.93
2024-02-17T06:55:34.064Z,64.14
2024-02-17T06:58:00.662Z,64.14
2024-02-17T07:00:27.340Z,64.33
2024-02-17T07:02:54.000Z,64.44
2024-02-17T07:05:20.590Z,64.12
2024-02-17T07:07:47.404Z,64.26
2024-02-17T07:10:14.040Z,64.06
2024-02-17T07:12:41.190Z,64.15
2024-02-17T07:15:08.574Z,63.93
2024-02-17T07:17:35.344Z,64.36
2024-02-17T07:20:02.319Z,64.26
2024-02-17T07:22:29.809Z,63.94
2024-02-17T07:24:56.405Z,64.47
2024-02-17T07:27:24.188Z,64.60
2024-02-17T07:29:51.174Z,64.27
2024-02-17T07:32:20.076Z,64.32
2024-02-17T07:34:47.278Z,64.09
2024-02-17T07:37:14.097Z,63.95
2024-02-17T07:39:41.915Z,64.40
2024-02-17T07:42:10.043Z,64.10
2024-02-17T07:44:37.354Z,63.88
2024-02-17T07:47:04.911Z,64.25
2024-02-17T07:49:33.487Z,64.11
2024-02-17T07:52:00.669Z,64.03
2024-02-17T07:54:27.420Z,64.40
2024-02-17T07:56:54.106Z,64.32
2024-02-17T07:59:20.767Z,64.51
2024-02-17T08:01:47.543Z,64.63
2024-02-17T08:04:14.961Z,64.21
2024-02-17T08:06:41.916Z,64.23
2024-02-17T08:09:09.027Z,64.50
2024-02-17T08:11:36.651Z,64.15
2024-02-17T08:14:05.780Z,64.19
2024-02-17T08:16:33.267Z,64.15
2024-02-17T08:19:00.206Z,64.49
2024-02-17T08:21:27.035Z,64.33
2024-02-17T08:23:53.756Z,64.54
2024-02-17T08:26:21.248Z,64.37
2024-02-17T08:28:47.890Z,64.20
2024-02-17T08:31:14.837Z,64.35
2024-02-17T08:33:41.625Z,64.55
2024-02-17T08:36:08.914Z,64.52
2024-02-17T08:38:35.599Z,64.56
2024-02-17T08:41:05.073Z,64.62
2024-02-17T08:43:31.662Z,64.58
2024-02-17T08:45:58.550Z,64.38
2024-02-17T08:48:25.665Z,64.62
2024-02-17T08:50:52.830Z,64.33
2024-02-17T08:53:20.051Z,64.70
2024-02-17T08:55:46.690Z,64.33
2024-02-17T08:58:13.784Z,64.73
2024-02-17T09:00:40.597Z,64.68
2024-02-17T09:03:07.722Z,64.63
2024-02-17T09:05:38.002Z,64.30
2024-02-17T09:08:04.947Z,64.49
2024-02-17T09:10:31.542Z,64.25
2024-02-17T09:12:58.242Z,64.64
2024-02-17T09:15:25.002Z,64.53
2024-02-17T09:17:51.739Z,64.45
2024-02-17T09:20:18.503Z,64.57
2024-02-17T09:22:45.718Z,64.40
2024-02-17T09:25:12.324Z,64.20
2024-02-17T09:27:39.099Z,64.25
2024-02-17T09:30:07.215Z,64.50
2024-02-17T09:32:33.839Z,64.04
2024-02-17T09:35:00.702Z,64.22
2024-02-17T09:37:27.499Z,64.24
2024-02-17T09:39:54.147Z,64.50
2024-02-17T09:42:21.122Z,64.25
2024-02-17T09:44:49.176Z,63.92
2024-02-17T09:47:17.074Z,64.06
2024-02-17T09:49:45.652Z,64.30
2024-02-17T09:52:12.825Z,64.25
2024-02-17T09:54:40.406Z,64.06
2024-02-17T09:57:07.801Z,64.02
2024-02-17T09:59:34.473Z,63.97
2024-02-17T10:02:03.763Z,63.88
2024-02-17T10:04:31.384Z,63.84
2024-02-17T10:07:02.329Z,63.82
2024-02-17T10:09:31.095Z,64.05
2024-02-17T10:11:59.865Z,63.84
2024-02-17T10:14:28.563Z,63.87
2024-02-17T10:17:00.051Z,63.58
2024-02-17T10:19:27.111Z,63.54
2024-02-17T10:21:55.252Z,63.82
2024-02-17T10:24:22.943Z,63.77
2024-02-17T10:26:56.145Z,63.69
2024-02-17T10:29:25.045Z,63.83
2024-02-17T10:31:52.227Z,63.79
2024-02-17T10:34:19.315Z,63.84
2024-02-17T10:36:46.567Z,63.77
2024-02-17T10:39:13.214Z,63.46
2024-02-17T10:41:40.376Z,63.71
2024-02-17T10:44:07.146Z,63.47
2024-02-17T10:46:36.099Z,63.53
2024-02-17T10:49:17.239Z,63.58
2024-02-17T10:51:57.145Z,63.16
2024-02-17T10:54:33.341Z,63.27
2024-02-17T10:57:04.965Z,63.47
2024-02-17T10:59:33.700Z,63.00
2024-02-17T11:02:00.720Z,63.28
2024-02-17T11:04:28.106Z,63.20
2024-02-17T11:06:57.085Z,63.07
2024-02-17T11:09:24.632Z,62.79
2024-02-17T11:11:51.466Z,63.15
2024-02-17T11:14:42.504Z,63.13
2024-02-17T11:17:12.981Z,62.85
2024-02-17T11:19:43.642Z,62.83
2024-02-17T11:22:11.203Z,62.79
2024-02-17T11:24:39.152Z,62.70
2024-02-17T11:27:06.348Z,62.63
2024-02-17T11:29:35.487Z,62.62
2024-02-17T11:32:03.714Z,62.57
2024-02-17T11:34:30.539Z,62.56
2024-02-17T11:37:00.427Z,62.62
2024-02-17T11:39:27.512Z,62.43
2024-02-17T11:41:54.462Z,62.66
2024-02-17T11:44:22.132Z,62.61
2024-02-17T11:46:49.165Z,62.52
2024-02-17T11:49:44.649Z,62.50
2024-02-17T11:52:11.538Z,62.47
2024-02-17T11:54:38.989Z,62.92
2024-02-17T11:57:07.869Z,62.52
2024-02-17T11:59:36.948Z,62.64
2024-02-17T12:02:04.533Z,62.50
2024-02-17T12:04:32.574Z,62.54
2024-02-17T12:06:59.394Z,62.80
2024-02-17T12:09:26.065Z,62.69
2024-02-17T12:11:54.892Z,62.88
2024-02-17T12:14:24.621Z,62.44
2024-02-17T12:16:51.458Z,62.77
2024-02-17T12:19:18.262Z,62.84
2024-02-17T12:21:46.703Z,62.47
2024-02-17T12:24:14.082Z,62.45
2024-02-17T12:26:47.242Z,62.35
2024-02-17T12:29:15.318Z,62.72
2024-02-17T12:31:47.442Z,62.63
2024-02-17T12:34:31.735Z,62.61
2024-02-17T12:37:00.457Z,62.68
2024-02-17T12:39:27.490Z,62.16
2024-02-17T12:42:04.671Z,62.12
2024-02-17T12:44:32.145Z,62.35
2024-02-17T12:46:58.934Z,62.07
2024-02-17T12:49:26.303Z,62.28
2024-02-17T12:51:53.613Z,62.01
2024-02-17T12:54:20.607Z,61.97
2024-02-17T12:56:47.750Z,62.06
2024-02-17T12:59:15.065Z,62.21
2024-02-17T13:01:41.801Z,61.91
2024-02-17T13:04:08.551Z,62.06
2024-02-17T13:06:35.903Z,62.33
2024-02-17T13:09:02.864Z,62.29
2024-02-17T13:11:29.941Z,62.26
2024-02-17T13:13:57.720Z,62.16
2024-02-17T13:16:24.516Z,61.89
2024-02-17T13:18:51.299Z,61.83
2024-02-17T13:21:19.412Z,61.80
2024-02-17T13:23:46.250Z,62.04
2024-02-17T13:26:14.829Z,61.66
2024-02-17T13:28:43.009Z,61.80
2024-02-17T13:31:12.120Z,61.56
2024-02-17T13:33:39.383Z,61.70
2024-02-17T13:36:06.180Z,62.08
2024-02-17T13:38:32.795Z,61.91
2024-02-17T13:40:59.505Z,61.59
2024-02-17T13:43:26.088Z,61.71
2024-02-17T13:45:53.076Z,61.59
2024-02-17T13:48:20.153Z,61.59
2024-02-17T13:50:48.499Z,61.23
2024-02-17T13:53:15.620Z,61.35
2024-02-17T13:55:44.236Z,61.52
2024-02-17T13:58:11.562Z,60.98
2024-02-17T14:00:40.991Z,61.25
2024-02-17T14:03:08.635Z,61.39
2024-02-17T14:05:35.611Z,60.84
2024-02-17T14:08:02.186Z,61.21
2024-02-17T14:10:28.921Z,61.26
2024-02-17T14:13:00.059Z,61.15
2024-02-17T14:15:28.117Z,60.73
2024-02-17T14:17:54.963Z,61.01
2024-02-17T14:20:21.775Z,60.87
2024-02-17T14:22:51.476Z,60.67
2024-02-17T14:25:18.304Z,60.51
2024-02-17T14:27:46.213Z,60.49
2024-02-17T14:30:13.320Z,60.50
2024-02-17T14:32:40.810Z,60.74
2024-02-17T14:35:07.844Z,60.59
2024-02-17T14:37:34.596Z,60.73
2024-02-17T14:40:01.256Z,60.68
2024-02-17T14:42:28.501Z,60.36
2024-02-17T14:44:55.412Z,60.51
2024-02-17T14:47:22.012Z,60.49
2024-02-17T14:49:49.114Z,60.49
2024-02-17T14:52:17.124Z,60.36
2024-02-17T14:54:45.974Z,60.52
2024-02-17T14:57:14.159Z,60.40
2024-02-17T14:59:44.853Z,60.21
2024-02-17T15:02:11.535Z,60.14
2024-02-17T15:04:38.208Z,60.56
2024-02-17T15:07:05.138Z,60.21
2024-02-17T15:09:32.464Z,60.07
2024-02-17T15:12:00.132Z,60.27
2024-02-17T15:14:29.067Z,60.32
2024-02-17T15:16:56.115Z,60.30
2024-02-17T15:19:22.897Z,59.89
2024-02-17T15:21:49.649Z,59.92
2024-02-17T15:24:16.385Z,60.01
2024-02-17T15:26:46.039Z,60.20
2024-02-17T15:29:12.707Z,59.92
2024-02-17T15:31:40.854Z,60.31
2024-02-17T15:34:08.831Z,59.72
2024-02-17T15:36:37.902Z,59.84
2024-02-17T15:39:07.533Z,59.67
2024-02-17T15:41:35.285Z,59.90
2024-02-17T15:44:01.946Z,59.65
2024-02-17T15:46:28.739Z,60.02
2024-02-17T15:48:56.081Z,60.03
2024-02-17T15:51:22.859Z,59.67
2024-02-17T15:53:52.996Z,59.76
2024-02-17T15:56:19.576Z,59.67
2024-02-17T15:58:49.300Z,59.65
2024-02-17T16:01:18.003Z,59.95
2024-02-17T16:03:45.692Z,59.82
2024-02-17T16:06:12.761Z,60.00
2024-02-17T16:08:42.251Z,60.09
2024-02-17T16:11:15.104Z,60.05
2024-02-17T16:13:45.788Z,60.16
2024-02-17T16:16:15.950Z,60.05
2024-02-17T16:18:46.778Z,60.05
2024-02-17T16:21:13.763Z,59.85
2024-02-17T16:23:40.941Z,60.15
2024-02-17T16:26:07.558Z,59.74
2024-02-17T16:28:34.305Z,60.07
2024-02-17T16:31:01.043Z,60.09
2024-02-17T16:33:27.885Z,59.68
2024-02-17T16:35:54.665Z,59.74
2024-02-17T16:38:21.494Z,59.99
2024-02-17T16:40:49.804Z,59.95
2024-02-17T16:43:17.667Z,60.05
2024-02-17T16:45:47.293Z,60.04
2024-02-17T16:48:14.558Z,59.87
2024-02-17T16:50:41.301Z,59.67
2024-02-17T16:53:07.968Z,59.71
2024-02-17T16:55:34.792Z,59.79
2024-02-17T16:58:01.669Z,60.14
2024-02-17T17:00:28.400Z,59.86
2024-02-17T17:02:55.326Z,60.17
2024-02-17T17:05:22.071Z,60.06
2024-02-17T17:07:48.857Z,60.13
2024-02-17T17:10:15.491Z,60.07
2024-02-17T17:12:42.372Z,60.42
2024-02-17T17:15:10.312Z,60.06
2024-02-17T17:17:37.727Z,60.04
2024-02-17T17:20:05.404Z,60.52
2024-02-17T17:22:42.710Z,60.49
2024-02-17T17:25:14.543Z,60.45
2024-02-17T17:27:41.557Z,60.27
2024-02-17T17:30:12.122Z,60.62
2024-02-17T17:32:41.115Z,60.26
2024-02-17T17:35:08.920Z,60.77
2024-02-17T17:37:36.318Z,60.49
2024-02-17T17:40:03.677Z,60.80
2024-02-17T17:42:30.858Z,60.76
2024-02-17T17:44:57.675Z,60.96
2024-02-17T17:47:24.392Z,60.89
2024-02-17T17:49:51.259Z,60.84
2024-02-17T17:52:18.190Z,60.86
2024-02-17T17:54:49.755Z,60.87
2024-02-17T17:57:17.545Z,61.10
2024-02-17T17:59:45.204Z,61.09
2024-02-17T18:02:11.766Z,60.97
2024-02-17T18:04:38.712Z,61.02
2024-02-17T18:07:05.737Z,61.17
2024-02-17T18:09:32.492Z,61.17
2024-02-17T18:11:59.185Z,61.07
2024-02-17T18:14:25.827Z,61.12
2024-02-17T18:16:52.501Z,61.30
2024-02-17T18:19:20.133Z,60.94
2024-02-17T18:21:47.623Z,61.43
2024-02-17T18:24:14.333Z,61.34
2024-02-17T18:26:41.236Z,61.41
2024-02-17T18:29:07.911Z,61.34
2024-02-17T18:31:37.450Z,61.23
2024-02-17T18:34:05.098Z,61.34
2024-02-17T18:36:33.110Z,61.33
2024-02-17T18:39:00.060Z,61.40
2024-02-17T18:41:26.637Z,61.44
2024-02-17T18:43:53.261Z,61.57
2024-02-17T18:46:20.134Z,61.40
2024-02-17T18:48:46.800Z,61.69
2024-02-17T18:51:19.678Z,61.63
2024-02-17T18:53:46.704Z,61.80
2024-02-17T18:56:13.699Z,61.84
2024-02-17T18:58:47.934Z,61.71
2024-02-17T19:01:15.142Z,61.63
2024-02-17T19:03:49.182Z,61.71
2024-02-17T19:06:17.176Z,61.69
2024-02-17T19:08:46.709Z,61.79
2024-02-17T19:11:13.762Z,61.80
2024-02-17T19:13:40.994Z,61.53
2024-02-17T19:16:08.930Z,61.71
2024-02-17T19:18:36.527Z,61.98
2024-02-17T19:21:03.940Z,62.07
2024-02-17T19:23:30.594Z,61.80
2024-02-17T19:25:57.315Z,61.99
2024-02-17T19:28:23.916Z,62.03
2024-02-17T19:30:50.958Z,62.08
2024-02-17T19:33:19.288Z,62.03
2024-02-17T19:35:46.165Z,61.63
2024-02-17T19:38:12.841Z,61.94
2024-02-17T19:40:39.969Z,61.79
2024-02-17T19:43:06.680Z,61.98
2024-02-17T19:45:33.530Z,61.75
2024-02-17T19:48:00.428Z,62.17
2024-02-17T19:50:27.080Z,62.14
2024-02-17T19:52:53.862Z,61.82
2024-02-17T19:55:20.604Z,61.65
2024-02-17T19:57:52.772Z,61.87
2024-02-17T20:00:20.645Z,61.58
2024-02-17T20:02:48.069Z,61.88
2024-02-17T20:05:19.230Z,61.87
2024-02-17T20:07:46.038Z,61.54
2024-02-17T20:10:12.552Z,61.78
2024-02-17T20:12:40.034Z,61.61
2024-02-17T20:15:10.008Z,61.54
2024-02-17T20:17:44.883Z,61.41
2024-02-17T20:20:13.020Z,61.91
2024-02-17T20:22:40.226Z,61.54
2024-02-17T20:25:07.193Z,61.83
2024-02-17T20:27:33.956Z,61.90
2024-02-17T20:30:00.632Z,61.62
2024-02-17T20:32:27.333Z,61.79
2024-02-17T20:34:54.048Z,61.45
2024-02-17T20:37:20.704Z,61.65
2024-02-17T20:39:47.387Z,61.32
2024-02-17T20:42:14.033Z,61.53
2024-02-17T20:44:41.751Z,61.48
2024-02-17T20:47:08.768Z,61.35
2024-02-17T20:49:36.673Z,61.58
2024-02-17T20:52:03.519Z,61.56
2024-02-17T20:54:30.701Z,61.55
2024-02-17T20:56:57.429Z,61.57
2024-02-17T20:59:24.127Z,61.56
2024-02-17T21:01:50.914Z,61.47
2024-02-17T21:04:18.121Z,61.28
2024-02-17T21:06:45.126Z,61.48
2024-02-17T21:09:11.731Z,61.36
2024-02-17T21:11:38.447Z,61.13
2024-02-17T21:14:07.412Z,61.29
2024-02-17T21:16:34.079Z,61.51
2024-02-17T21:19:00.928Z,61.49
2024-02-17T21:21:28.732Z,61.43
2024-02-17T21:23:56.170Z,61.61
2024-02-17T21:26:22.832Z,61.32
2024-02-17T21:28:49.498Z,61.25
2024-02-17T21:31:16.323Z,61.64
2024-02-17T21:33:44.179Z,61.37
2024-02-17T21:36:13.976Z,61.53
2024-02-17T21:38:41.296Z,61.80
2024-02-17T21:41:07.951Z,61.50
2024-02-17T21:43:35.723Z,61.55
2024-02-17T21:46:02.768Z,61.33
2024-02-17T21:48:30.091Z,61.45
2024-02-17T21:50:56.805Z,61.85
2024-02-17T21:53:23.558Z,61.69
2024-02-17T21:55:50.176Z,61.70
2024-02-17T21:58:17.306Z,61.64
2024-02-17T22:00:45.099Z,61.57
2024-02-17T22:03:11.946Z,61.78
2024-02-17T22:05:38.711Z,61.69
2024-02-17T22:08:06.751Z,61.52
2024-02-17T22:10:33.321Z,61.51
2024-02-17T22:12:59.934Z,61.56
2024-02-17T22:15:27.406Z,61.70
2024-02-17T22:17:54.149Z,61.61
2024-02-17T22:20:20.993Z,61.42
2024-02-17T22:22:47.663Z,61.75
2024-02-17T22:25:14.291Z,61.71
2024-02-17T22:27:42.464Z,61.40
2024-02-17T22:30:09.894Z,61.42
2024-02-17T22:32:37.717Z,61.63
2024-02-17T22:35:05.042Z,61.73
2024-02-17T22:37:32.337Z,61.88
2024-02-17T22:39:59.017Z,61.81
2024-02-17T22:42:25.681Z,61.74
2024-02-17T22:44:52.253Z,61.49
2024-02-17T22:47:19.008Z,61.69
2024-02-17T22:49:46.098Z,61.59
2024-02-17T22:52:12.821Z,61.59
2024-02-17T22:54:40.460Z,61.53
2024-02-17T22:57:07.839Z,61.42
2024-02-17T22:59:34.536Z,61.53
2024-02-17T23:02:01.223Z,61.55
2024-02-17T23:04:27.986Z,61.70
2024-02-17T23:06:54.635Z,61.35
2024-02-17T23:09:21.307Z,61.86
2024-02-17T23:11:47.999Z,61.43
2024-02-17T23:14:14.958Z,61.41
2024-02-17T23:16:44.968Z,61.79
2024-02-17T23:19:13.194Z,61.76
2024-02-17T23:21:45.736Z,61.69
2024-02-17T23:24:13.902Z,61.76
2024-02-17T23:26:41.397Z,61.84
2024-02-17T23:29:09.577Z,61.69
2024-02-17T23:31:36.676Z,61.40
2024-02-17T23:34:03.609Z,61.53
2024-02-17T23:36:30.477Z,61.88
2024-02-17T23:38:57.342Z,61.59
2024-02-17T23:41:23.965Z,61.53
2024-02-17T23:43:50.624Z,61.22
2024-02-17T23:46:17.346Z,61.11
2024-02-17T23:48:44.168Z,61.12
2024-02-17T23:51:11.648Z,61.57
2024-02-17T23:53:39.393Z,61.34
2024-02-17T23:56:06.854Z,61.51
2024-02-17T23:58:33.757Z,61.38
